Time;durP1;ratioP1;P1;durP2;ratioP2;P2;SDS_P1;SDS_P2;PMS_P1;PMS_P2;Temp;Humidity;BMP_temperature;BMP_pressure;BME280_temperature;BME280_humidity;BME280_pressure;Samples;Min_cycle;Max_cycle;Signal;HPM_P1;HPM_P2
2021/10/23 00:01:22;;;;;;;10.63;5.43;;;;;;;14.27;89.97;97640.63;5075389;28;20044;-87
2021/10/23 00:03:47;;;;;;;9.18;5.15;;;;;;;14.32;89.77;97641.13;5072501;28;20028;-87
2021/10/23 00:06:13;;;;;;;10.07;4.93;;;;;;;14.37;88.38;97624.66;5083033;28;20402;-87
2021/10/23 00:08:39;;;;;;;9.55;5.80;;;;;;;14.45;88.75;97624.94;5079052;28;20024;-87
2021/10/23 00:11:05;;;;;;;10.27;5.75;;;;;;;14.46;90.06;97638.28;5072311;28;20031;-87
2021/10/23 00:13:30;;;;;;;12.27;5.93;;;;;;;14.44;90.21;97629.47;5072023;28;20020;-86
2021/10/23 00:15:56;;;;;;;8.32;5.88;;;;;;;14.38;89.82;97629.06;5074830;28;20076;-86
2021/10/23 00:18:22;;;;;;;12.35;5.97;;;;;;;14.29;90.72;97630.59;5087611;28;20027;-86
2021/10/23 00:20:48;;;;;;;11.82;5.20;;;;;;;14.23;89.93;97632.91;5064890;28;20012;-86
2021/10/23 00:23:14;;;;;;;13.85;5.85;;;;;;;14.22;91.42;97633.84;5077011;28;20043;-86
2021/10/23 00:25:39;;;;;;;8.73;6.20;;;;;;;14.27;91.82;97627.19;5065904;28;20062;-86
2021/10/23 00:28:05;;;;;;;10.98;6.18;;;;;;;14.13;91.33;97616.59;5079549;28;20024;-86
2021/10/23 00:30:30;;;;;;;13.32;6.40;;;;;;;14.19;92.58;97618.81;5069942;28;20067;-87
2021/10/23 00:33:01;;;;;;;10.40;6.40;;;;;;;14.15;91.38;97622.69;5071164;28;20028;-86
2021/10/23 00:35:27;;;;;;;8.32;5.80;;;;;;;14.14;92.37;97621.00;5074161;28;20032;-86
2021/10/23 00:37:53;;;;;;;13.75;5.78;;;;;;;14.21;91.97;97624.94;5068668;28;20023;-86
2021/10/23 00:40:24;;;;;;;9.32;5.93;;;;;;;14.15;93.02;97625.38;5087164;28;20152;-87
2021/10/23 00:42:51;;;;;;;10.32;6.10;;;;;;;14.00;93.15;97619.31;5059848;28;20034;-86
2021/10/23 00:45:17;;;;;;;7.85;5.85;;;;;;;14.07;92.56;97620.59;5071485;28;20114;-85
2021/10/23 00:47:42;;;;;;;9.48;6.30;;;;;;;14.07;93.17;97625.13;5063476;28;20041;-86
2021/10/23 00:50:08;;;;;;;9.23;5.90;;;;;;;14.06;92.84;97623.38;5070987;28;20043;-86
2021/10/23 00:52:34;;;;;;;10.05;6.00;;;;;;;14.06;93.41;97624.25;5059887;28;20482;-86
2021/10/23 00:55:00;;;;;;;12.63;5.80;;;;;;;13.96;94.21;97622.38;5071005;28;20032;-85
2021/10/23 00:57:25;;;;;;;8.93;5.78;;;;;;;13.91;94.30;97614.63;5071096;28;20082;-85
2021/10/23 00:59:51;;;;;;;8.32;5.97;;;;;;;13.89;94.19;97621.09;5072595;28;20058;-87
2021/10/23 01:02:16;;;;;;;10.32;5.93;;;;;;;13.84;95.66;97613.34;5065517;28;20501;-86
2021/10/23 01:04:43;;;;;;;11.07;5.90;;;;;;;13.85;95.68;97603.47;5045370;28;20539;-85
2021/10/23 01:07:08;;;;;;;11.32;6.40;;;;;;;13.74;96.32;97600.72;5069300;28;20482;-85
2021/10/23 01:09:36;;;;;;;9.27;5.53;;;;;;;13.86;95.52;97615.94;5067087;28;20036;-85
2021/10/23 01:12:10;;;;;;;11.48;5.88;;;;;;;13.87;95.12;97610.44;5079141;28;20486;-85
2021/10/23 01:14:36;;;;;;;8.70;5.93;;;;;;;13.88;94.38;97601.41;5069076;28;20051;-85
2021/10/23 01:17:03;;;;;;;8.90;5.72;;;;;;;13.82;94.85;97606.38;5087675;28;20035;-86
2021/10/23 01:19:28;;;;;;;11.55;6.45;;;;;;;13.84;95.05;97613.34;5066720;28;20032;-86
2021/10/23 01:21:54;;;;;;;7.88;5.65;;;;;;;13.81;95.33;97607.38;5069174;28;20038;-86
2021/10/23 01:24:20;;;;;;;8.57;5.82;;;;;;;13.77;95.15;97592.44;5059108;28;20065;-85
2021/10/23 01:26:47;;;;;;;9.18;6.30;;;;;;;13.82;94.88;97609.06;5067508;28;20483;-87
2021/10/23 01:29:14;;;;;;;7.82;5.22;;;;;;;13.89;94.67;97604.97;5065684;28;20034;-86
2021/10/23 01:31:41;;;;;;;11.60;5.40;;;;;;;13.81;93.06;97604.69;5085012;28;20463;-87
2021/10/23 01:34:14;;;;;;;11.00;6.00;;;;;;;13.78;95.17;97607.59;5068395;28;20078;-87
2021/10/23 01:36:49;;;;;;;10.68;6.05;;;;;;;13.74;95.09;97600.72;5089097;28;20352;-85
2021/10/23 01:39:15;;;;;;;9.23;6.28;;;;;;;13.80;95.13;97611.88;5062345;28;20468;-85
2021/10/23 01:41:41;;;;;;;9.38;6.07;;;;;;;13.78;94.96;97619.19;5064327;28;20123;-84
2021/10/23 01:44:08;;;;;;;8.30;5.32;;;;;;;13.78;95.51;97603.06;5068719;28;20047;-85
2021/10/23 01:46:34;;;;;;;8.70;6.28;;;;;;;13.76;95.60;97610.38;5078567;28;20453;-85
2021/10/23 01:49:01;;;;;;;9.18;6.32;;;;;;;13.72;95.41;97606.19;5072629;28;20035;-86
2021/10/23 01:51:27;;;;;;;10.88;6.30;;;;;;;13.72;96.42;97619.66;5069984;28;20031;-86
2021/10/23 01:53:53;;;;;;;11.38;6.25;;;;;;;13.62;97.21;97615.94;5067435;28;20020;-86
2021/10/23 01:56:18;;;;;;;12.20;6.72;;;;;;;13.61;97.89;97616.91;5074070;28;20023;-85
2021/10/23 01:58:44;;;;;;;14.80;6.38;;;;;;;13.64;98.12;97622.03;5070744;28;20032;-86
2021/10/23 02:01:09;;;;;;;11.77;6.28;;;;;;;13.70;97.00;97636.88;5075819;28;20035;-86
2021/10/23 02:03:35;;;;;;;10.07;6.45;;;;;;;13.66;97.33;97636.22;5076642;28;20118;-87
2021/10/23 02:06:00;;;;;;;11.52;7.68;;;;;;;13.49;98.62;97640.16;5072012;28;20027;-86
2021/10/23 02:08:27;;;;;;;16.38;8.55;;;;;;;13.61;98.66;97643.78;5085542;28;20056;-86
2021/10/23 02:10:53;;;;;;;14.75;8.20;;;;;;;13.51;98.84;97642.72;5073307;28;20511;-86
2021/10/23 02:13:18;;;;;;;13.10;8.23;;;;;;;13.35;99.85;97644.81;5063089;28;20035;-86
2021/10/23 02:15:44;;;;;;;14.57;7.28;;;;;;;13.39;100.00;97648.97;5068647;28;20632;-86
2021/10/23 02:18:10;;;;;;;15.98;9.10;;;;;;;13.34;100.00;97657.38;5065086;28;20505;-86
2021/10/23 02:20:35;;;;;;;13.95;8.60;;;;;;;13.30;99.70;97663.91;5067122;28;20103;-88
2021/10/23 02:23:01;;;;;;;15.52;9.23;;;;;;;13.29;99.06;97675.63;5065156;28;20173;-86
2021/10/23 02:25:27;;;;;;;13.43;8.95;;;;;;;13.34;99.57;97695.00;5090996;28;20042;-87
2021/10/23 02:27:53;;;;;;;18.42;9.40;;;;;;;13.40;99.99;97699.94;5073646;28;20498;-87
2021/10/23 02:30:19;;;;;;;14.73;9.43;;;;;;;13.29;99.24;97691.75;5071455;28;20060;-86
2021/10/23 02:32:44;;;;;;;26.30;9.05;;;;;;;13.27;99.51;97685.63;5070174;28;20031;-87
2021/10/23 02:35:10;;;;;;;15.38;8.60;;;;;;;13.39;99.94;97702.72;5078965;28;20077;-86
2021/10/23 02:37:36;;;;;;;13.13;8.55;;;;;;;13.30;100.00;97692.63;5078758;28;20455;-86
2021/10/23 02:40:03;;;;;;;13.75;8.95;;;;;;;13.38;100.00;97712.59;5070924;28;20532;-86
2021/10/23 02:42:29;;;;;;;12.63;8.23;;;;;;;13.30;100.00;97709.59;5059239;28;20028;-86
2021/10/23 02:44:54;;;;;;;15.20;8.18;;;;;;;13.24;99.76;97710.03;5064549;28;20032;-87
2021/10/23 02:47:20;;;;;;;13.35;8.27;;;;;;;13.19;100.00;97706.81;5064523;28;20491;-87
2021/10/23 02:49:45;;;;;;;14.20;8.20;;;;;;;13.26;100.00;97708.09;5079897;28;20115;-86
2021/10/23 02:52:11;;;;;;;11.80;7.95;;;;;;;13.23;100.00;97719.03;5071599;28;20028;-87
2021/10/23 02:54:36;;;;;;;17.20;11.40;;;;;;;13.11;100.00;97716.34;5081710;28;20023;-86
2021/10/23 02:57:02;;;;;;;17.85;10.52;;;;;;;13.19;100.00;97720.25;5074145;28;20441;-86
2021/10/23 02:59:28;;;;;;;12.70;8.38;;;;;;;13.16;100.00;97728.50;5087002;28;20024;-86
2021/10/23 03:01:53;;;;;;;13.60;8.23;;;;;;;13.01;100.00;97724.19;5075001;28;20114;-85
2021/10/23 03:04:32;;;;;;;12.32;8.10;;;;;;;13.04;100.00;97729.34;5081335;28;20032;-85
2021/10/23 03:06:57;;;;;;;18.77;9.35;;;;;;;13.01;100.00;97722.31;5063354;28;20036;-85
2021/10/23 03:09:23;;;;;;;12.50;9.32;;;;;;;12.98;100.00;97729.75;5068398;28;20053;-85
2021/10/23 03:11:49;;;;;;;16.17;8.98;;;;;;;12.98;100.00;97727.06;5069252;28;20028;-86
2021/10/23 03:14:14;;;;;;;17.42;7.85;;;;;;;12.97;100.00;97731.56;5074267;28;20052;-85
2021/10/23 03:16:40;;;;;;;16.63;8.57;;;;;;;12.74;100.00;97721.53;5076706;28;20546;-85
2021/10/23 03:19:05;;;;;;;15.35;8.43;;;;;;;12.74;100.00;97723.34;5096449;28;20030;-85
2021/10/23 03:21:31;;;;;;;11.70;7.78;;;;;;;12.81;100.00;97733.59;5066129;28;20055;-85
2021/10/23 03:23:57;;;;;;;11.98;7.95;;;;;;;12.70;100.00;97719.16;5077232;28;20036;-86
2021/10/23 03:26:22;;;;;;;13.75;7.70;;;;;;;12.80;100.00;97728.31;5062075;28;20039;-85
2021/10/23 03:28:49;;;;;;;16.67;8.10;;;;;;;12.73;100.00;97724.34;5087516;28;20027;-85
2021/10/23 03:31:15;;;;;;;14.10;7.53;;;;;;;12.69;100.00;97728.19;5074830;28;20014;-86
2021/10/23 03:33:40;;;;;;;12.85;7.95;;;;;;;12.66;100.00;97733.75;5070184;28;20028;-86
2021/10/23 03:36:06;;;;;;;14.88;7.07;;;;;;;12.69;100.00;97723.69;5067067;28;20053;-86
2021/10/23 03:38:32;;;;;;;14.07;7.53;;;;;;;12.66;100.00;97723.00;5061041;28;20031;-87
2021/10/23 03:40:58;;;;;;;13.13;7.82;;;;;;;12.61;100.00;97723.34;5091903;28;20028;-87
2021/10/23 03:43:23;;;;;;;14.35;8.10;;;;;;;12.65;100.00;97732.03;5078956;28;20027;-86
2021/10/23 03:45:49;;;;;;;12.75;8.18;;;;;;;12.61;100.00;97717.13;5076191;28;20027;-87
2021/10/23 03:48:15;;;;;;;14.02;8.27;;;;;;;12.74;100.00;97721.53;5070567;28;20031;-86
2021/10/23 03:50:40;;;;;;;11.45;7.05;;;;;;;12.71;100.00;97718.19;5073067;28;20541;-85
2021/10/23 03:53:06;;;;;;;11.13;7.10;;;;;;;12.77;100.00;97731.19;5066066;28;20030;-86
2021/10/23 03:55:31;;;;;;;10.90;6.50;;;;;;;12.72;100.00;97719.91;5074681;28;20016;-85
2021/10/23 03:57:57;;;;;;;17.50;6.65;;;;;;;12.80;100.00;97725.63;5108987;28;20046;-80
2021/10/23 04:00:23;;;;;;;14.25;7.10;;;;;;;12.69;100.00;97710.25;5084289;28;20474;-85
2021/10/23 04:02:48;;;;;;;13.05;8.02;;;;;;;12.68;100.00;97718.41;5055324;28;20029;-86
2021/10/23 04:05:14;;;;;;;16.90;9.02;;;;;;;12.62;100.00;97721.50;5065171;28;20118;-86
2021/10/23 04:07:39;;;;;;;17.25;10.57;;;;;;;12.62;100.00;97722.34;5072336;28;20055;-85
2021/10/23 04:10:06;;;;;;;14.65;9.30;;;;;;;12.64;100.00;97724.97;5082166;28;20026;-86
2021/10/23 04:12:32;;;;;;;14.25;8.57;;;;;;;12.56;100.00;97727.28;5070007;28;20046;-85
2021/10/23 04:14:59;;;;;;;22.67;10.95;;;;;;;12.54;100.00;97734.56;5067224;28;20048;-85
2021/10/23 04:17:25;;;;;;;32.22;15.13;;;;;;;12.42;100.00;97720.16;5061827;28;20065;-86
2021/10/23 04:19:51;;;;;;;39.17;15.55;;;;;;;12.46;100.00;97724.34;5063638;28;20110;-86
2021/10/23 04:22:16;;;;;;;28.10;14.23;;;;;;;12.39;100.00;97723.91;5070000;28;20477;-87
2021/10/23 04:24:42;;;;;;;27.13;12.55;;;;;;;12.40;100.00;97730.97;5074575;28;20023;-86
2021/10/23 04:27:08;;;;;;;18.60;11.00;;;;;;;12.41;100.00;97726.47;5067096;28;20030;-86
2021/10/23 04:29:33;;;;;;;16.20;10.02;;;;;;;12.39;100.00;97733.78;5071605;28;20053;-86
2021/10/23 04:31:59;;;;;;;18.20;9.93;;;;;;;12.49;100.00;97732.19;5063249;28;20028;-85
2021/10/23 04:34:25;;;;;;;18.23;10.20;;;;;;;12.45;100.00;97736.91;5071436;28;20023;-86
2021/10/23 04:36:51;;;;;;;23.10;9.85;;;;;;;12.28;100.00;97739.84;5086257;28;20479;-86
2021/10/23 04:39:16;;;;;;;22.52;10.55;;;;;;;12.30;100.00;97737.94;5068007;28;20070;-86
2021/10/23 04:41:42;;;;;;;14.23;9.77;;;;;;;12.41;100.00;97735.41;5068207;28;20027;-86
2021/10/23 04:44:07;;;;;;;19.33;10.80;;;;;;;12.43;100.00;97743.31;5065684;28;20051;-87
2021/10/23 04:46:34;;;;;;;21.38;10.90;;;;;;;12.40;100.00;97754.25;5063020;28;20032;-87
2021/10/23 04:48:59;;;;;;;21.17;10.93;;;;;;;12.33;100.00;97742.22;5062832;28;20036;-86
2021/10/23 04:51:25;;;;;;;24.88;12.98;;;;;;;12.37;100.00;97751.78;5073053;28;20566;-87
2021/10/23 04:53:54;;;;;;;24.63;12.70;;;;;;;12.34;100.00;97744.81;5077366;28;20027;-87
2021/10/23 04:56:21;;;;;;;22.67;12.70;;;;;;;12.37;100.00;97755.31;5081554;28;20051;-85
2021/10/23 04:58:47;;;;;;;25.38;12.52;;;;;;;12.29;100.00;97749.63;5070565;28;20024;-85
2021/10/23 05:01:22;;;;;;;23.73;13.55;;;;;;;12.16;100.00;97735.28;5074544;28;20024;-86
2021/10/23 05:03:51;;;;;;;23.20;12.77;;;;;;;12.41;100.00;97772.94;5066663;28;20507;-86
2021/10/23 05:06:16;;;;;;;21.10;14.02;;;;;;;12.18;100.00;97743.25;5075061;28;20024;-88
2021/10/23 05:08:42;;;;;;;26.02;15.75;;;;;;;12.25;100.00;97753.44;5078603;28;20559;-88
2021/10/23 05:11:08;;;;;;;36.03;17.17;;;;;;;12.42;100.00;97779.19;5070781;28;20034;-86
2021/10/23 05:13:34;;;;;;;36.47;18.77;;;;;;;12.41;100.00;97780.13;5071953;28;20391;-87
2021/10/23 05:15:59;;;;;;;38.00;19.33;;;;;;;12.63;100.00;97793.88;5047364;28;20056;-78
2021/10/23 05:18:25;;;;;;;38.90;21.50;;;;;;;12.56;100.00;97783.63;5046613;28;20043;-85
2021/10/23 05:20:50;;;;;;;48.40;23.23;;;;;;;12.62;100.00;97792.13;5054530;28;20033;-86
2021/10/23 05:23:16;;;;;;;44.60;23.75;;;;;;;12.76;100.00;97801.97;5046627;28;20036;-84
2021/10/23 05:25:42;;;;;;;41.75;21.83;;;;;;;12.86;100.00;97803.91;5050049;28;20021;-85
2021/10/23 05:28:07;;;;;;;51.28;23.67;;;;;;;12.97;100.00;97806.75;5052727;28;20352;-85
2021/10/23 05:30:34;;;;;;;48.53;25.73;;;;;;;13.13;100.00;97814.69;5042038;28;20062;-84
2021/10/23 05:33:00;;;;;;;46.67;23.23;;;;;;;13.29;100.00;97836.81;5063544;28;20028;-91
2021/10/23 05:35:25;;;;;;;34.55;20.00;;;;;;;13.23;100.00;97839.94;5054823;28;20020;-86
2021/10/23 05:37:51;;;;;;;38.38;20.73;;;;;;;13.36;100.00;97834.59;5047239;28;20036;-79
2021/10/23 05:40:17;;;;;;;33.10;20.40;;;;;;;13.37;100.00;97839.88;5070765;28;20054;-85
2021/10/23 05:42:42;;;;;;;41.22;23.63;;;;;;;13.31;100.00;97840.28;5047064;28;20028;-89
2021/10/23 05:45:08;;;;;;;43.40;22.08;;;;;;;13.58;100.00;97841.06;5050096;28;20044;-78
2021/10/23 05:47:34;;;;;;;37.03;21.33;;;;;;;14.04;97.64;97853.97;5044464;28;20173;-79
2021/10/23 05:49:59;;;;;;;36.50;19.63;;;;;;;14.61;93.59;97848.97;5070638;28;20020;-79
2021/10/23 05:52:25;;;;;;;43.33;19.45;;;;;;;15.10;89.58;97854.25;5049946;28;20165;-79
2021/10/23 05:54:50;;;;;;;32.15;17.48;;;;;;;15.09;87.49;97852.53;5048195;28;20021;-80
2021/10/23 05:57:16;;;;;;;27.35;16.25;;;;;;;14.91;88.01;97854.78;5084576;28;20024;-76
2021/10/23 05:59:43;;;;;;;38.53;18.58;;;;;;;14.93;90.33;97862.72;5045640;28;20051;-80
2021/10/23 06:02:25;;;;;;;30.55;16.67;;;;;;;15.07;88.64;97870.66;5049141;28;20025;-92
2021/10/23 06:04:56;;;;;;;34.03;17.23;;;;;;;15.69;87.15;97871.28;5050453;28;20028;-87
2021/10/23 06:07:24;;;;;;;32.83;17.10;;;;;;;16.71;81.67;97867.56;5060162;28;20277;-93
2021/10/23 06:09:50;;;;;;;27.63;16.73;;;;;;;16.78;76.61;97867.94;5064618;28;20096;-92
2021/10/23 06:12:15;;;;;;;20.50;13.35;;;;;;;16.61;76.66;97869.28;5048664;28;20024;-87
2021/10/23 06:14:41;;;;;;;20.58;12.82;;;;;;;16.74;77.90;97891.63;5054788;28;20059;-89
2021/10/23 06:17:07;;;;;;;30.92;18.73;;;;;;;17.16;77.23;97892.69;5056818;28;20055;-79
2021/10/23 06:19:34;;;;;;;27.80;15.93;;;;;;;17.97;71.73;97897.50;5067275;28;20020;-81
2021/10/23 06:22:00;;;;;;;28.80;14.35;;;;;;;18.94;67.54;97889.75;5063244;28;20029;-80
2021/10/23 06:24:25;;;;;;;24.30;14.20;;;;;;;19.84;62.03;97893.13;5067974;28;20067;-80
2021/10/23 06:26:51;;;;;;;27.60;15.32;;;;;;;20.22;60.44;97910.41;5065299;28;20048;-79
2021/10/23 06:29:17;;;;;;;27.15;16.75;;;;;;;21.02;56.52;97902.56;5085153;28;20032;-81
2021/10/23 06:31:42;;;;;;;26.45;17.17;;;;;;;22.40;53.86;97907.53;5063938;28;20056;-80
2021/10/23 06:34:08;;;;;;;17.77;12.63;;;;;;;23.74;51.59;97906.66;5077864;28;20017;-80
2021/10/23 06:36:33;;;;;;;24.88;11.63;;;;;;;24.21;46.41;97892.34;5063549;28;20429;-81
2021/10/23 06:39:01;;;;;;;24.27;11.93;;;;;;;24.49;45.60;97890.09;5060525;28;20089;-80
2021/10/23 06:41:26;;;;;;;18.95;12.27;;;;;;;24.54;45.01;97891.31;5044589;28;20563;-81
2021/10/23 06:43:52;;;;;;;20.15;12.63;;;;;;;23.92;45.84;97884.63;5069797;28;20119;-82
2021/10/23 06:46:19;;;;;;;17.17;11.10;;;;;;;24.04;46.00;97885.16;5087369;28;20035;-81
2021/10/23 06:48:45;;;;;;;24.15;10.80;;;;;;;24.17;45.65;97908.25;5067923;28;20452;-81
2021/10/23 06:51:11;;;;;;;25.38;12.07;;;;;;;24.06;45.73;97916.75;5044197;28;20059;-82
2021/10/23 06:53:36;;;;;;;33.13;15.23;;;;;;;23.79;46.66;97919.81;5056377;28;20046;-82
2021/10/23 06:56:02;;;;;;;37.63;18.50;;;;;;;22.93;48.82;97935.53;5056798;28;20111;-81
2021/10/23 06:58:27;;;;;;;42.95;14.73;;;;;;;22.60;49.76;97925.41;5073241;28;20497;-81
2021/10/23 07:00:53;;;;;;;42.92;19.02;;;;;;;22.61;50.06;97927.97;5073551;28;20096;-82
2021/10/23 07:03:18;;;;;;;31.30;15.10;;;;;;;22.63;50.14;97925.09;5045041;28;20089;-81
2021/10/23 07:05:44;;;;;;;31.23;14.10;;;;;;;23.55;49.30;97920.63;5046356;28;20031;-81
2021/10/23 07:08:10;;;;;;;19.88;11.98;;;;;;;24.59;46.80;97918.13;5036288;28;20028;-81
2021/10/23 07:10:36;;;;;;;24.60;12.48;;;;;;;24.31;45.95;97903.97;5052703;28;20036;-82
2021/10/23 07:13:04;;;;;;;41.25;17.15;;;;;;;23.52;50.35;97933.75;5041225;28;20681;-82
2021/10/23 07:15:29;;;;;;;28.88;11.35;;;;;;;23.15;48.73;97921.31;5068727;28;20047;-82
2021/10/23 07:17:55;;;;;;;32.95;10.40;;;;;;;22.68;49.86;97925.47;5054433;28;20024;-82
2021/10/23 07:20:21;;;;;;;24.55;11.73;;;;;;;22.63;50.59;97949.63;5042815;28;20428;-82
2021/10/23 07:22:48;;;;;;;25.40;10.50;;;;;;;22.24;51.30;97948.31;5050845;28;20032;-82
2021/10/23 07:25:13;;;;;;;23.35;12.82;;;;;;;21.72;51.92;97939.13;5045596;28;20459;-82
2021/10/23 07:27:39;;;;;;;25.05;13.68;;;;;;;20.98;53.77;97945.53;5037221;28;20181;-82
2021/10/23 07:30:09;;;;;;;27.08;15.20;;;;;;;20.19;56.52;97946.88;5045421;28;20028;-82
2021/10/23 07:32:39;;;;;;;27.02;16.08;;;;;;;20.12;57.79;97943.00;5056538;28;20411;-81
2021/10/23 07:35:05;;;;;;;30.65;15.27;;;;;;;19.79;58.72;97933.44;5041026;28;20476;-81
2021/10/23 07:37:34;;;;;;;26.23;17.13;;;;;;;20.74;56.45;97936.16;5056426;28;20078;-81
2021/10/23 07:40:00;;;;;;;32.13;16.27;;;;;;;21.10;56.51;97950.81;5067907;28;20483;-80
2021/10/23 07:42:26;;;;;;;22.15;13.82;;;;;;;20.72;55.32;97958.09;5037081;28;20031;-82
2021/10/23 07:44:52;;;;;;;21.40;12.88;;;;;;;20.45;56.77;97952.59;5071523;28;20027;-82
2021/10/23 07:47:21;;;;;;;18.33;11.55;;;;;;;20.33;56.78;97953.75;5051820;28;20035;-83
2021/10/23 07:49:47;;;;;;;27.38;10.23;;;;;;;20.19;57.23;97955.00;5051842;28;20043;-82
2021/10/23 07:52:13;;;;;;;22.10;11.15;;;;;;;20.15;58.18;97956.28;5042407;28;20024;-82
2021/10/23 07:54:40;;;;;;;25.05;12.55;;;;;;;20.47;57.79;97950.56;5044714;28;20024;-81
2021/10/23 07:57:06;;;;;;;18.60;9.50;;;;;;;20.85;56.73;97950.47;5035461;28;20431;-82
2021/10/23 07:59:32;;;;;;;9.70;7.05;;;;;;;20.50;54.54;97944.84;5056384;28;20040;-81
2021/10/23 08:02:16;;;;;;;9.48;7.38;;;;;;;20.61;55.23;97943.81;5036245;28;20032;-80
2021/10/23 08:04:42;;;;;;;19.38;8.13;;;;;;;20.64;56.14;97936.19;5055842;28;20024;-82
2021/10/23 08:07:07;;;;;;;13.18;8.00;;;;;;;20.86;55.62;97954.88;5045352;28;20070;-82
2021/10/23 08:09:37;;;;;;;11.65;7.55;;;;;;;20.78;54.30;97952.06;5048021;28;20032;-81
2021/10/23 08:12:04;;;;;;;14.55;8.38;;;;;;;20.65;55.10;97954.25;5056372;28;20426;-82
2021/10/23 08:14:33;;;;;;;14.80;7.97;;;;;;;20.39;55.34;97928.72;5038120;28;20090;-82
2021/10/23 08:16:59;;;;;;;14.13;8.63;;;;;;;20.20;56.42;97959.47;5040346;28;20027;-79
2021/10/23 08:19:24;;;;;;;19.65;10.65;;;;;;;20.34;57.59;97969.91;5051831;28;20702;-81
2021/10/23 08:21:50;;;;;;;34.95;17.58;;;;;;;20.25;58.02;97957.16;5036431;28;20020;-78
2021/10/23 08:24:16;;;;;;;21.17;13.45;;;;;;;20.28;58.78;97961.47;5079786;28;20052;-80
2021/10/23 08:26:42;;;;;;;17.67;11.25;;;;;;;20.53;57.23;97964.44;5048395;28;20158;-80
2021/10/23 08:29:10;;;;;;;16.73;9.63;;;;;;;20.72;56.56;97955.38;5056659;28;20031;-80
2021/10/23 08:31:36;;;;;;;18.58;10.70;;;;;;;20.81;55.98;97962.63;5047646;28;20028;-79
2021/10/23 08:34:05;;;;;;;21.65;10.55;;;;;;;20.97;56.41;97965.59;5054044;28;20116;-80
2021/10/23 08:36:31;;;;;;;31.63;14.05;;;;;;;22.30;52.67;97953.13;5040954;28;20034;-80
2021/10/23 08:38:57;;;;;;;19.05;9.23;;;;;;;23.07;50.16;97950.44;5047271;28;20032;-79
2021/10/23 08:41:24;;;;;;;31.15;7.80;;;;;;;23.14;48.96;97951.47;5057538;28;20038;-80
2021/10/23 08:43:51;;;;;;;21.10;8.45;;;;;;;22.85;50.10;97945.53;5069104;28;20082;-79
2021/10/23 08:46:23;;;;;;;15.60;8.45;;;;;;;22.71;49.33;97955.16;5041468;28;20032;-79
2021/10/23 08:48:53;;;;;;;20.38;7.82;;;;;;;23.18;48.78;97966.53;5067853;28;20020;-78
2021/10/23 08:51:22;;;;;;;19.35;8.35;;;;;;;24.10;47.25;97952.81;5066796;28;20452;-79
2021/10/23 08:53:49;;;;;;;20.45;8.57;;;;;;;23.91;47.06;97955.84;5037454;28;20036;-79
2021/10/23 08:56:15;;;;;;;13.75;8.00;;;;;;;23.16;48.33;97966.66;5051820;28;20402;-79
2021/10/23 08:58:41;;;;;;;15.30;9.45;;;;;;;23.28;48.33;97960.94;5058286;28;20028;-79
2021/10/23 09:01:09;;;;;;;26.80;12.23;;;;;;;23.43;48.39;97962.06;5041684;28;20024;-81
2021/10/23 09:03:35;;;;;;;22.58;13.85;;;;;;;22.96;48.78;97958.91;5054708;28;20021;-78
2021/10/23 09:06:02;;;;;;;28.40;15.52;;;;;;;23.07;49.06;97975.00;5055746;28;20027;-78
2021/10/23 09:08:28;;;;;;;33.72;17.13;;;;;;;23.39;48.70;97960.63;5052004;28;20035;-81
2021/10/23 09:10:56;;;;;;;32.83;16.88;;;;;;;24.51;46.34;97949.09;5078951;28;20071;-82
2021/10/23 09:13:30;;;;;;;25.48;14.18;;;;;;;26.02;42.11;97944.28;5049357;28;20036;-83
2021/10/23 09:15:56;;;;;;;25.65;14.40;;;;;;;26.15;42.35;97951.88;5059897;28;20044;-81
2021/10/23 09:18:44;;;;;;;24.60;14.00;;;;;;;28.06;39.99;97944.69;5053679;28;20035;-84
2021/10/23 09:21:20;;;;;;;35.50;15.27;;;;;;;29.43;36.45;97929.34;5060517;28;20016;-79
2021/10/23 09:23:50;;;;;;;22.40;15.35;;;;;;;30.51;34.73;97934.84;5060784;28;20025;-79
2021/10/23 09:26:36;;;;;;;29.88;14.52;;;;;;;31.51;32.61;97917.94;5057986;28;20086;-78
2021/10/23 09:29:19;;;;;;;54.38;28.83;;;;;;;32.98;30.87;97921.28;5056878;28;20518;-79
2021/10/23 09:31:49;;;;;;;19.73;10.98;;;;;;;32.69;30.58;97914.53;5049987;28;20406;-78
2021/10/23 09:34:19;;;;;;;21.33;12.82;;;;;;;32.03;31.56;97907.72;5036460;28;20103;-80
2021/10/23 09:36:53;;;;;;;14.00;9.75;;;;;;;30.71;33.23;97917.38;5036147;28;20066;-80
2021/10/23 09:39:25;;;;;;;18.15;10.75;;;;;;;29.94;34.54;97916.00;5038660;28;20024;-79
2021/10/23 09:42:05;;;;;;;17.65;10.60;;;;;;;29.20;36.63;97919.63;5054066;28;20032;-79
2021/10/23 09:44:31;;;;;;;24.73;18.08;;;;;;;27.76;38.00;97919.16;5061772;28;20043;-83
2021/10/23 09:46:57;;;;;;;21.40;14.10;;;;;;;27.19;39.91;97930.03;5037587;28;20032;-83
2021/10/23 09:49:23;;;;;;;23.67;13.77;;;;;;;27.21;39.30;97922.44;5047457;28;20040;-83
2021/10/23 09:52:05;;;;;;;32.13;17.27;;;;;;;29.30;37.12;97934.78;5056288;28;20035;-83
2021/10/23 09:54:31;;;;;;;;;;;;;;;29.41;35.48;97925.94;5056896;28;20493;-83
2021/10/23 09:56:56;;;;;;;28.20;9.98;;;;;;;28.92;35.87;97920.53;5066060;28;19912;-83
2021/10/23 09:59:27;;;;;;;13.45;8.70;;;;;;;28.52;36.25;97908.31;5036381;28;20032;-83
2021/10/23 10:01:56;;;;;;;13.98;9.13;;;;;;;28.47;36.54;97905.31;5054891;28;20032;-83
2021/10/23 10:04:23;;;;;;;12.25;7.55;;;;;;;29.13;35.85;97905.84;5066957;28;20036;-78
2021/10/23 10:06:52;;;;;;;8.75;6.03;;;;;;;30.49;32.68;97892.75;5059507;28;20060;-79
2021/10/23 10:09:23;;;;;;;8.00;5.90;;;;;;;31.15;31.56;97893.56;5060149;28;20028;-80
2021/10/23 10:11:50;;;;;;;8.27;6.10;;;;;;;30.26;32.28;97892.28;5045086;28;20031;-80
2021/10/23 10:14:17;;;;;;;12.07;6.18;;;;;;;28.83;34.93;97888.66;5047748;28;20048;-81
2021/10/23 10:16:47;;;;;;;14.45;5.90;;;;;;;28.46;34.97;97891.75;5083524;28;20024;-82
2021/10/23 10:19:14;;;;;;;13.52;6.25;;;;;;;28.16;36.31;97896.56;5060562;28;20448;-86
2021/10/23 10:21:41;;;;;;;7.95;5.25;;;;;;;27.58;37.13;97894.00;5085729;28;20115;-79
2021/10/23 10:24:42;;;;;;;14.68;9.50;;;;;;;27.41;37.08;97905.16;5061879;28;20019;-80
2021/10/23 10:27:33;;;;;;;7.70;4.97;;;;;;;27.04;37.14;97891.56;5001691;28;20037;-91
2021/10/23 10:33:34;;;;;;;9.85;6.25;;;;;;;25.15;40.75;97852.28;5079415;28;20028;-90
2021/10/23 10:39:24;;;;;;;10.48;7.00;;;;;;;25.75;40.09;97876.25;5093580;28;20060;-90
2021/10/23 10:42:50;;;;;;;8.40;6.07;;;;;;;26.34;39.20;97902.91;5097865;28;20023;-90
2021/10/23 10:48:40;;;;;;;17.75;7.35;;;;;;;25.02;41.93;97892.19;5107978;28;20051;-89
2021/10/23 10:54:28;;;;;;;13.03;6.97;;;;;;;24.26;42.69;97846.22;5108316;28;20096;-78
2021/10/23 10:56:54;;;;;;;10.23;6.13;;;;;;;24.39;42.50;97878.50;5101581;28;20278;-89
2021/10/23 10:59:52;;;;;;;16.92;8.18;;;;;;;24.57;43.48;97914.72;5067223;28;20052;-89
2021/10/23 11:02:30;;;;;;;9.55;6.80;;;;;;;23.84;44.19;97894.72;5070263;28;20035;-89
2021/10/23 11:05:09;;;;;;;13.70;7.72;;;;;;;23.70;44.95;97893.50;5064210;28;20032;-79
2021/10/23 11:08:06;;;;;;;12.35;7.18;;;;;;;23.48;45.54;97921.44;5062221;28;20035;-78
2021/10/23 11:10:50;;;;;;;26.88;13.60;;;;;;;23.47;46.17;97914.28;5077864;28;20047;-79
2021/10/23 11:13:28;;;;;;;17.95;7.57;;;;;;;23.44;45.78;97925.53;5089387;28;20027;-90
2021/10/23 11:15:55;;;;;;;9.73;6.35;;;;;;;23.38;46.73;97920.72;5074737;28;20044;-78
2021/10/23 11:18:20;;;;;;;19.60;7.82;;;;;;;23.30;46.94;97918.78;5074650;28;20031;-80
2021/10/23 11:20:47;;;;;;;19.83;7.65;;;;;;;23.12;47.37;97924.38;5068578;28;20084;-80
2021/10/23 11:23:21;;;;;;;11.10;7.28;;;;;;;22.92;47.68;97927.47;5060995;28;20035;-80
2021/10/23 11:25:47;;;;;;;14.52;7.00;;;;;;;23.11;47.87;97925.38;5063219;28;20130;-81
2021/10/23 11:28:13;;;;;;;12.63;7.18;;;;;;;23.09;47.88;97932.88;5082306;28;20019;-80
2021/10/23 11:30:45;;;;;;;18.15;7.88;;;;;;;23.13;47.75;97928.78;5084409;28;20388;-81
2021/10/23 11:33:17;;;;;;;18.20;7.95;;;;;;;22.99;48.90;97925.81;5096893;28;20035;-80
2021/10/23 11:35:52;;;;;;;21.80;10.07;;;;;;;22.69;49.91;97935.38;5069654;28;20067;-80
2021/10/23 11:38:25;;;;;;;17.35;8.70;;;;;;;22.56;51.02;97940.38;5082948;28;20452;-78